createdAt,value
2019-04-07T00:02:02.592Z,25.17
2019-04-07T00:04:31.786Z,39.20
2019-04-07T00:07:01.310Z,25.50
2019-04-07T00:09:30.395Z,33.13
2019-04-07T00:11:59.316Z,35.70
2019-04-07T00:14:28.268Z,24.33
2019-04-07T00:16:57.090Z,30.00
2019-04-07T00:19:26.002Z,30.77
2019-04-07T00:21:55.669Z,22.90
2019-04-07T00:24:24.719Z,24.60
2019-04-07T00:26:53.705Z,22.03
2019-04-07T00:29:22.855Z,27.73
2019-04-07T00:31:52.290Z,26.40
2019-04-07T00:34:22.098Z,33.30
2019-04-07T00:36:51.184Z,26.30
2019-04-07T00:39:20.723Z,25.17
2019-04-07T00:41:49.326Z,21.73
2019-04-07T00:44:17.750Z,25.33
2019-04-07T00:46:46.143Z,34.27
2019-04-07T00:49:14.893Z,27.23
2019-04-07T00:51:43.927Z,25.77
2019-04-07T00:54:13.037Z,24.80
2019-04-07T00:56:42.337Z,22.53
2019-04-07T00:59:11.385Z,22.40
2019-04-07T01:01:40.329Z,28.20
2019-04-07T01:04:09.142Z,24.60
2019-04-07T01:06:38.337Z,26.20
2019-04-07T01:09:10.015Z,24.97
2019-04-07T01:11:38.879Z,28.10
2019-04-07T01:14:08.220Z,29.17
2019-04-07T01:16:37.462Z,29.27
2019-04-07T01:19:07.154Z,26.43
2019-04-07T01:21:36.328Z,25.37
2019-04-07T01:24:05.644Z,26.00
2019-04-07T01:26:34.537Z,27.30
2019-04-07T01:29:03.473Z,26.77
2019-04-07T01:31:32.940Z,25.47
2019-04-07T01:34:02.169Z,34.50
2019-04-07T01:36:32.598Z,30.80
2019-04-07T01:39:01.530Z,29.07
2019-04-07T01:41:38.820Z,26.20
2019-04-07T01:44:15.965Z,25.23
2019-04-07T01:46:57.275Z,24.53
2019-04-07T01:49:33.822Z,28.80
2019-04-07T01:52:14.766Z,26.50
2019-04-07T01:54:53.692Z,24.40
2019-04-07T01:57:47.675Z,26.43
2019-04-07T02:00:45.398Z,20.63
2019-04-07T02:03:30.862Z,26.53
2019-04-07T02:06:17.849Z,21.10
2019-04-07T02:08:55.743Z,31.03
2019-04-07T02:11:36.606Z,29.93
2019-04-07T02:14:25.350Z,22.43
2019-04-07T02:17:14.763Z,33.30
2019-04-07T02:20:03.656Z,27.97
2019-04-07T02:22:52.087Z,25.20
2019-04-07T02:25:39.059Z,23.50
2019-04-07T02:28:17.685Z,23.00
2019-04-07T02:31:04.330Z,28.03
2019-04-07T02:33:59.720Z,29.93
2019-04-07T02:36:53.991Z,32.10
2019-04-07T02:39:46.871Z,27.60
2019-04-07T02:42:34.302Z,21.50
2019-04-07T02:45:22.584Z,31.90
2019-04-07T02:47:58.309Z,23.80
2019-04-07T02:50:34.987Z,26.80
2019-04-07T02:53:16.012Z,26.90
2019-04-07T02:56:10.092Z,24.43
2019-04-07T02:59:02.783Z,25.47
2019-04-07T03:01:57.521Z,25.70
2019-04-07T03:04:40.198Z,25.37
2019-04-07T03:07:24.955Z,25.80
2019-04-07T03:10:21.551Z,19.27
2019-04-07T03:13:06.423Z,22.13
2019-04-07T03:15:48.411Z,26.23
2019-04-07T03:18:26.894Z,31.40
2019-04-07T03:21:06.460Z,26.67
2019-04-07T03:24:02.828Z,25.30
2019-04-07T03:26:57.755Z,22.03
2019-04-07T03:29:45.250Z,25.70
2019-04-07T03:32:45.369Z,27.70
2019-04-07T03:35:20.185Z,31.83
2019-04-07T03:37:54.771Z,25.27
2019-04-07T03:40:42.886Z,23.60
2019-04-07T03:43:21.736Z,27.70
2019-04-07T03:45:57.404Z,26.63
2019-04-07T03:48:36.970Z,30.87
2019-04-07T03:51:11.237Z,29.40
2019-04-07T03:53:58.160Z,29.40
2019-04-07T03:56:47.715Z,25.23
2019-04-07T03:59:46.205Z,28.23
2019-04-07T04:02:40.999Z,22.13
2019-04-07T04:05:27.958Z,25.97
2019-04-07T04:08:07.419Z,25.27
2019-04-07T04:10:42.636Z,26.00
2019-04-07T04:13:36.270Z,31.00
2019-04-07T04:16:11.186Z,33.20
2019-04-07T04:18:40.591Z,25.77
2019-04-07T04:21:09.679Z,26.93
2019-04-07T04:23:41.567Z,29.03
2019-04-07T04:26:09.616Z,27.83
2019-04-07T04:28:39.057Z,32.17
2019-04-07T04:31:07.993Z,25.73
2019-04-07T04:33:37.754Z,26.00
2019-04-07T04:36:07.771Z,29.43
2019-04-07T04:38:36.980Z,36.03
2019-04-07T04:41:06.952Z,26.87
2019-04-07T04:43:36.057Z,27.00
2019-04-07T04:46:08.647Z,24.63
2019-04-07T04:48:35.775Z,26.37
2019-04-07T04:51:05.329Z,24.57
2019-04-07T04:53:34.939Z,27.43
2019-04-07T04:56:03.898Z,32.17
2019-04-07T04:58:33.074Z,26.87
2019-04-07T05:01:02.918Z,28.90
2019-04-07T05:03:32.770Z,25.87
2019-04-07T05:06:02.383Z,26.37
2019-04-07T05:08:32.336Z,25.57
2019-04-07T05:11:01.635Z,26.53
2019-04-07T05:13:30.654Z,28.77
2019-04-07T05:15:59.670Z,30.57
2019-04-07T05:18:28.998Z,24.73
2019-04-07T05:20:58.240Z,27.27
2019-04-07T05:23:27.228Z,28.50
2019-04-07T05:25:56.035Z,26.60
2019-04-07T05:28:25.450Z,27.43
2019-04-07T05:30:54.423Z,26.87
2019-04-07T05:33:23.216Z,29.30
2019-04-07T05:35:53.208Z,38.83
2019-04-07T05:38:22.379Z,26.20
2019-04-07T05:40:52.113Z,35.30
2019-04-07T05:43:21.535Z,27.07
2019-04-07T05:45:50.997Z,28.60
2019-04-07T05:48:20.542Z,28.67
2019-04-07T05:50:50.362Z,43.33
2019-04-07T05:53:20.177Z,33.80
2019-04-07T05:55:49.193Z,33.43
2019-04-07T05:58:18.848Z,33.57
2019-04-07T06:00:48.926Z,30.23
2019-04-07T06:03:18.733Z,28.70
2019-04-07T06:05:50.815Z,28.17
2019-04-07T06:08:27.721Z,32.63
2019-04-07T06:10:50.059Z,32.83
2019-04-07T06:13:19.100Z,25.00
2019-04-07T06:15:49.346Z,25.80
2019-04-07T06:18:19.462Z,29.10
2019-04-07T06:20:48.596Z,32.63
2019-04-07T06:23:17.763Z,32.00
2019-04-07T06:25:46.688Z,32.27
2019-04-07T06:28:18.104Z,32.73
2019-04-07T06:30:46.179Z,29.33
2019-04-07T06:33:15.626Z,28.90
2019-04-07T06:35:45.608Z,32.07
2019-04-07T06:38:15.579Z,35.77
2019-04-07T06:40:44.900Z,26.87
2019-04-07T06:43:14.545Z,30.97
2019-04-07T06:45:52.794Z,35.17
2019-04-07T06:48:21.141Z,32.03
2019-04-07T06:51:18.972Z,36.23
2019-04-07T06:54:11.440Z,29.87
2019-04-07T06:57:08.523Z,34.40
2019-04-07T06:59:49.151Z,35.07
2019-04-07T07:02:40.717Z,31.90
2019-04-07T07:05:28.108Z,37.10
2019-04-07T07:08:21.107Z,29.83
2019-04-07T07:11:05.837Z,33.00
2019-04-07T07:13:43.917Z,38.63
2019-04-07T07:16:36.145Z,34.97
2019-04-07T07:19:16.376Z,32.30
2019-04-07T07:21:53.289Z,31.13
2019-04-07T07:24:25.268Z,37.97
2019-04-07T07:26:52.998Z,28.80
2019-04-07T07:29:22.373Z,38.37
2019-04-07T07:31:53.056Z,31.20
2019-04-07T07:34:22.152Z,33.23
2019-04-07T07:36:55.120Z,40.83
2019-04-07T07:39:23.215Z,32.90
2019-04-07T07:41:53.027Z,32.60
2019-04-07T07:44:22.295Z,35.87
2019-04-07T07:46:51.830Z,29.20
2019-04-07T07:49:21.317Z,31.87
2019-04-07T07:51:50.593Z,30.43
2019-04-07T07:54:19.546Z,35.00
2019-04-07T07:56:50.217Z,35.43
2019-04-07T07:59:19.990Z,30.13
2019-04-07T08:01:50.509Z,32.00
2019-04-07T08:04:20.642Z,27.17
2019-04-07T08:06:50.183Z,25.63
2019-04-07T08:09:23.690Z,30.10
2019-04-07T08:11:50.147Z,27.43
2019-04-07T08:14:19.912Z,27.40
2019-04-07T08:16:49.083Z,30.33
2019-04-07T08:19:18.956Z,23.40
2019-04-07T08:21:51.235Z,25.33
2019-04-07T08:24:19.454Z,31.47
2019-04-07T08:26:48.860Z,22.93
2019-04-07T08:29:17.878Z,29.80
2019-04-07T08:31:47.005Z,30.83
2019-04-07T08:34:15.471Z,28.00
2019-04-07T08:36:46.196Z,25.27
2019-04-07T08:39:22.915Z,25.93
2019-04-07T08:41:45.846Z,25.77
2019-04-07T08:44:15.003Z,26.70
2019-04-07T08:46:44.449Z,27.67
2019-04-07T08:49:14.117Z,21.33
2019-04-07T08:51:43.846Z,23.57
2019-04-07T08:54:16.313Z,20.50
2019-04-07T08:56:43.654Z,20.63
2019-04-07T08:59:16.209Z,20.40
2019-04-07T09:01:43.474Z,18.73
2019-04-07T09:04:15.098Z,18.30
2019-04-07T09:06:43.792Z,25.33
2019-04-07T09:09:13.951Z,22.70
2019-04-07T09:11:42.949Z,23.67
2019-04-07T09:14:14.585Z,18.10
2019-04-07T09:17:05.744Z,17.27
2019-04-07T09:19:54.694Z,21.10
2019-04-07T09:22:44.371Z,26.53
2019-04-07T09:25:42.852Z,20.17
2019-04-07T09:28:27.364Z,17.20
2019-04-07T09:31:14.480Z,19.00
2019-04-07T09:34:11.722Z,18.47
2019-04-07T09:36:51.536Z,21.10
2019-04-07T09:39:54.007Z,18.47
2019-04-07T09:42:25.853Z,19.03
2019-04-07T09:45:19.579Z,17.50
2019-04-07T09:48:10.749Z,16.63
2019-04-07T09:51:06.385Z,19.73
2019-04-07T09:53:40.330Z,14.93
2019-04-07T09:56:29.946Z,19.50
2019-04-07T09:59:06.796Z,16.93
2019-04-07T10:02:02.067Z,15.27
2019-04-07T10:04:42.113Z,20.50
2019-04-07T10:07:18.299Z,29.33
2019-04-07T10:10:10.312Z,16.23
2019-04-07T10:12:56.572Z,20.20
2019-04-07T10:15:51.080Z,24.13
2019-04-07T10:18:39.113Z,14.47
2019-04-07T10:21:31.000Z,15.80
2019-04-07T10:24:07.455Z,15.50
2019-04-07T10:26:43.019Z,20.00
2019-04-07T10:29:34.138Z,22.13
2019-04-07T10:32:28.348Z,24.77
2019-04-07T10:35:16.794Z,20.40
2019-04-07T10:37:53.214Z,19.00
2019-04-07T10:41:03.408Z,19.63
2019-04-07T10:43:51.495Z,18.80
2019-04-07T10:46:39.587Z,16.83
2019-04-07T10:49:27.644Z,17.97
2019-04-07T10:52:15.751Z,14.80
2019-04-07T10:55:24.112Z,17.40
2019-04-07T10:58:32.263Z,14.33
2019-04-07T11:01:39.796Z,18.43
2019-04-07T11:04:47.416Z,14.30
2019-04-07T11:07:54.912Z,15.50
2019-04-07T11:10:58.125Z,17.23
2019-04-07T11:14:05.809Z,11.97
2019-04-07T11:17:13.922Z,16.40
2019-04-07T11:20:08.470Z,15.70
2019-04-07T11:29:06.398Z,18.90
2019-04-07T11:32:13.938Z,16.43
2019-04-07T11:35:21.288Z,12.57
2019-04-07T11:38:15.571Z,16.37
2019-04-07T11:41:26.191Z,21.23
2019-04-07T11:44:32.283Z,14.37
2019-04-07T11:47:39.583Z,16.03
2019-04-07T11:50:47.225Z,17.50
2019-04-07T11:53:54.810Z,15.77
2019-04-07T11:57:02.235Z,20.17
2019-04-07T12:00:09.703Z,14.30
2019-04-07T12:03:17.177Z,13.97
2019-04-07T12:06:25.441Z,15.37
2019-04-07T12:09:33.709Z,17.10
2019-04-07T12:12:41.972Z,20.67
2019-04-07T12:15:49.882Z,19.13
2019-04-07T12:18:47.222Z,18.93
2019-04-07T12:21:49.202Z,19.93
2019-04-07T12:25:00.685Z,21.53
2019-04-07T12:28:06.604Z,14.47
2019-04-07T12:33:29.662Z,14.20
2019-04-07T12:36:20.578Z,12.17
2019-04-07T12:39:22.658Z,15.20
2019-04-07T12:42:23.404Z,13.30
2019-04-07T12:45:29.999Z,15.63
2019-04-07T12:48:32.004Z,12.37
2019-04-07T12:51:31.909Z,11.63
2019-04-07T12:54:23.300Z,13.40
2019-04-07T12:57:06.589Z,13.70
2019-04-07T13:00:10.281Z,17.23
2019-04-07T13:02:58.613Z,16.33
2019-04-07T13:05:52.433Z,13.77
2019-04-07T13:08:59.672Z,11.80
2019-04-07T13:11:50.132Z,11.90
2019-04-07T13:15:00.096Z,12.53
2019-04-07T13:18:08.645Z,18.20
2019-04-07T13:21:16.646Z,13.63
2019-04-07T13:24:31.062Z,11.83
2019-04-07T13:27:37.219Z,14.60
2019-04-07T13:30:27.113Z,13.87
2019-04-07T13:33:29.560Z,20.40
2019-04-07T13:36:33.319Z,12.30
2019-04-07T13:39:36.899Z,15.97
2019-04-07T13:42:16.483Z,13.63
2019-04-07T13:45:22.874Z,13.73
2019-04-07T13:48:23.855Z,13.83
2019-04-07T13:51:24.189Z,15.50
2019-04-07T13:57:09.099Z,14.30
2019-04-07T14:03:25.492Z,14.97
2019-04-07T14:06:14.954Z,19.03
2019-04-07T14:09:07.702Z,15.77
2019-04-07T14:12:11.634Z,13.33
2019-04-07T14:15:01.051Z,14.03
2019-04-07T14:18:06.870Z,22.33
2019-04-07T14:21:06.577Z,12.83
2019-04-07T14:24:08.202Z,21.43
2019-04-07T14:27:12.218Z,16.47
2019-04-07T14:29:53.657Z,16.50
2019-04-07T14:32:50.731Z,12.37
2019-04-07T14:35:50.997Z,16.63
2019-04-07T14:38:39.158Z,14.17
2019-04-07T14:41:47.396Z,19.07
2019-04-07T14:44:54.544Z,12.80
2019-04-07T14:48:02.169Z,16.30
2019-04-07T14:51:10.078Z,13.70
2019-04-07T14:54:17.476Z,18.37
2019-04-07T14:57:25.490Z,18.20
2019-04-07T15:00:33.866Z,14.10
2019-04-07T15:03:42.706Z,13.23
2019-04-07T15:06:33.640Z,16.43
2019-04-07T15:09:28.592Z,16.73
2019-04-07T15:12:32.605Z,16.03
2019-04-07T15:15:21.472Z,12.57
2019-04-07T15:18:10.661Z,20.50
2019-04-07T15:20:59.407Z,16.67
2019-04-07T15:24:10.079Z,12.43
2019-04-07T15:26:59.335Z,15.10
2019-04-07T15:29:49.252Z,11.90
2019-04-07T15:32:19.242Z,12.13
2019-04-07T15:35:11.847Z,21.00
2019-04-07T15:37:59.081Z,14.90
2019-04-07T15:40:47.377Z,14.33
2019-04-07T15:43:35.508Z,12.10
2019-04-07T15:46:23.687Z,16.60
2019-04-07T15:49:12.587Z,17.70
2019-04-07T15:52:06.741Z,16.70
2019-04-07T15:54:53.679Z,15.47
2019-04-07T15:57:23.026Z,13.60
2019-04-07T16:00:12.939Z,14.90
2019-04-07T16:03:01.319Z,13.60
2019-04-07T16:05:50.201Z,15.33
2019-04-07T16:08:39.439Z,12.20
2019-04-07T16:11:30.294Z,16.50
2019-04-07T16:14:17.701Z,19.43
2019-04-07T16:17:09.253Z,15.60
2019-04-07T16:19:56.036Z,20.43
2019-04-07T16:22:46.782Z,16.77
2019-04-07T16:25:34.294Z,11.33
2019-04-07T16:28:23.941Z,17.03
2019-04-07T16:31:06.441Z,16.43
2019-04-07T16:33:47.214Z,12.80
2019-04-07T16:36:28.133Z,18.33
2019-04-07T16:39:09.631Z,13.37
2019-04-07T16:41:51.140Z,17.40
2019-04-07T16:44:31.873Z,11.77
2019-04-07T16:47:21.007Z,17.43
2019-04-07T16:49:55.520Z,16.93
2019-04-07T16:52:36.724Z,19.17
2019-04-07T16:55:07.958Z,21.17
2019-04-07T16:57:37.577Z,15.57
2019-04-07T17:00:13.386Z,19.13
2019-04-07T17:02:41.771Z,14.67
2019-04-07T17:05:10.788Z,17.90
2019-04-07T17:07:39.694Z,19.40
2019-04-07T17:10:09.725Z,15.90
2019-04-07T17:12:40.602Z,20.37
2019-04-07T17:15:10.444Z,18.87
2019-04-07T17:17:40.040Z,13.40
2019-04-07T17:20:09.938Z,15.67
2019-04-07T17:22:38.515Z,14.27
2019-04-07T17:25:09.894Z,13.60
2019-04-07T17:27:40.939Z,16.60
2019-04-07T17:30:13.604Z,15.97
2019-04-07T17:32:42.093Z,20.40
2019-04-07T17:35:15.257Z,13.13
2019-04-07T17:37:43.702Z,23.57
2019-04-07T17:40:15.680Z,20.77
2019-04-07T17:42:45.066Z,16.83
2019-04-07T17:45:46.240Z,19.60
2019-04-07T17:48:37.887Z,13.73
2019-04-07T17:51:15.521Z,22.50
2019-04-07T17:54:19.489Z,23.60
2019-04-07T17:56:52.325Z,15.20
2019-04-07T17:59:31.154Z,17.23
2019-04-07T18:02:10.804Z,17.83
2019-04-07T18:05:01.381Z,16.13
2019-04-07T18:07:48.761Z,13.67
2019-04-07T18:10:48.684Z,17.00
2019-04-07T18:13:39.466Z,14.90
2019-04-07T18:16:17.077Z,20.60
2019-04-07T18:19:03.944Z,19.00
2019-04-07T18:21:52.441Z,22.37
2019-04-07T18:24:29.919Z,15.43
2019-04-07T18:27:12.560Z,12.87
2019-04-07T18:30:00.779Z,21.73
2019-04-07T18:32:45.066Z,28.00
2019-04-07T18:35:33.036Z,14.20
2019-04-07T18:38:19.573Z,16.13
2019-04-07T18:41:11.058Z,19.17
2019-04-07T18:43:53.943Z,20.00
2019-04-07T18:46:28.378Z,18.47
2019-04-07T18:49:16.920Z,17.37
2019-04-07T18:52:05.714Z,15.70
2019-04-07T18:54:53.165Z,18.47
2019-04-07T18:57:40.074Z,14.53
2019-04-07T19:00:19.716Z,14.53
2019-04-07T19:03:23.740Z,14.50
2019-04-07T19:06:18.062Z,16.40
2019-04-07T19:09:01.436Z,21.20
2019-04-07T19:11:47.680Z,14.50
2019-04-07T19:14:48.933Z,22.03
2019-04-07T19:17:36.203Z,17.83
2019-04-07T19:20:30.391Z,17.30
2019-04-07T19:23:06.013Z,14.40
2019-04-07T19:25:45.709Z,13.90
2019-04-07T19:28:41.001Z,15.70
2019-04-07T19:31:35.177Z,15.90
2019-04-07T19:34:13.051Z,15.77
2019-04-07T19:37:02.428Z,14.83
2019-04-07T19:39:44.126Z,12.23
2019-04-07T19:42:30.609Z,15.30
2019-04-07T19:45:13.331Z,13.20
2019-04-07T19:47:59.269Z,14.40
2019-04-07T19:50:45.793Z,16.40
2019-04-07T19:53:32.744Z,19.10
2019-04-07T19:56:32.923Z,16.73
2019-04-07T19:59:41.647Z,19.83
2019-04-07T20:02:44.587Z,13.70
2019-04-07T20:05:38.711Z,14.27
2019-04-07T20:08:25.086Z,12.00
2019-04-07T20:11:11.891Z,16.37
2019-04-07T20:14:11.724Z,16.60
2019-04-07T20:16:47.578Z,25.60
2019-04-07T20:19:28.805Z,15.57
2019-04-07T20:22:24.991Z,14.13
2019-04-07T20:25:18.417Z,18.10
2019-04-07T20:27:56.046Z,16.40
2019-04-07T20:30:45.595Z,17.00
2019-04-07T20:33:20.637Z,15.87
2019-04-07T20:35:56.318Z,22.00
2019-04-07T20:38:44.404Z,19.57
2019-04-07T20:41:35.919Z,22.10
2019-04-07T20:44:18.872Z,16.63
2019-04-07T20:47:10.804Z,19.53
2019-04-07T20:50:10.712Z,18.40
2019-04-07T20:53:08.611Z,17.77
2019-04-07T20:55:44.130Z,18.50
2019-04-07T20:58:44.574Z,22.53
2019-04-07T21:01:23.296Z,20.17
2019-04-07T21:04:10.635Z,19.77
2019-04-07T21:07:13.708Z,15.83
2019-04-07T21:10:05.228Z,20.73
2019-04-07T21:12:45.480Z,20.03
2019-04-07T21:15:37.178Z,20.70
2019-04-07T21:18:14.714Z,20.20
2019-04-07T21:20:53.368Z,15.57
2019-04-07T21:23:39.764Z,17.50
2019-04-07T21:26:31.966Z,23.97
2019-04-07T21:29:10.930Z,18.80
2019-04-07T21:31:47.686Z,20.87
2019-04-07T21:34:39.599Z,22.97
2019-04-07T21:37:28.463Z,20.77
2019-04-07T21:40:26.504Z,19.73
2019-04-07T21:43:18.029Z,24.03
2019-04-07T21:46:02.512Z,20.60
2019-04-07T21:48:45.389Z,23.80
2019-04-07T21:51:33.231Z,22.63
2019-04-07T21:54:07.716Z,21.43
2019-04-07T21:56:50.001Z,24.67
2019-04-07T21:59:31.431Z,20.73
2019-04-07T22:02:17.673Z,24.17
2019-04-07T22:04:56.930Z,19.67
2019-04-07T22:07:37.565Z,23.50
2019-04-07T22:10:07.422Z,21.53
2019-04-07T22:12:36.798Z,19.43
2019-04-07T22:15:11.990Z,17.13
2019-04-07T22:17:40.718Z,21.50
2019-04-07T22:20:14.773Z,18.63
2019-04-07T22:22:43.041Z,25.43
2019-04-07T22:25:14.092Z,23.30
2019-04-07T22:27:44.144Z,24.70
2019-04-07T22:30:14.385Z,22.17
2019-04-07T22:32:43.451Z,24.97
2019-04-07T22:35:12.981Z,19.87
2019-04-07T22:37:42.775Z,21.70
2019-04-07T22:40:15.476Z,19.80
2019-04-07T22:42:46.694Z,20.53
2019-04-07T22:45:15.217Z,20.13
2019-04-07T22:47:44.514Z,19.00
2019-04-07T22:50:13.816Z,24.33
2019-04-07T22:52:47.351Z,18.93
2019-04-07T22:55:14.359Z,22.27
2019-04-07T22:57:44.160Z,18.30
2019-04-07T23:00:19.144Z,16.00
2019-04-07T23:02:48.628Z,25.13
2019-04-07T23:05:17.825Z,19.20
2019-04-07T23:07:46.764Z,22.80
2019-04-07T23:10:17.577Z,24.00
2019-04-07T23:12:47.917Z,17.07
2019-04-07T23:15:17.041Z,18.63
2019-04-07T23:17:46.052Z,19.60
2019-04-07T23:20:15.685Z,26.87
2019-04-07T23:22:44.660Z,18.10
2019-04-07T23:25:13.933Z,22.73
2019-04-07T23:27:43.650Z,18.90
2019-04-07T23:30:13.268Z,17.83
2019-04-07T23:32:42.264Z,18.60
2019-04-07T23:35:12.292Z,22.50
2019-04-07T23:37:41.361Z,27.93
2019-04-07T23:40:10.665Z,20.73
2019-04-07T23:42:40.299Z,24.43
2019-04-07T23:45:10.375Z,19.23
2019-04-07T23:47:40.681Z,19.57
2019-04-07T23:50:11.134Z,19.47
2019-04-07T23:52:43.221Z,19.50
2019-04-07T23:55:12.946Z,21.47
2019-04-07T23:57:42.389Z,24.10
